Huancavelica, Peru
Current Conditions -  °F | °C
As of 3:00 PM on Saturday 20 Dec 2014 (Local Time) from SPHO Reporting Station
Scattered Clouds Scattered Clouds  
Wind Chill: 84°   Ceiling: Unl
Heat Index: 84°   Visibility: 6mi
Dew Point: 55°   Wind: 8mph
Humidity: 37%   Direction: 350°N
Pressure: 30.06"   Gusts: NA
Location:  12.79°S, 74.99°W
Report Text: SPHO 202000Z 35007KT 9999 FEW046 SCT250 29/13 Q1018 RMK PP000
Loading
Personal Weather Stations






























Interactive Weather Map New forecast layout! Learn more

10-Day Weather Forecast

Advertisements
Track Severe Weather on mobile